sensor_id;sensor_type;location;lat;lon;timestamp;P1;durP1;ratioP1;P2;durP2;ratioP2
7845;SDS011;3968;51.424;6.788;2022-12-13T00:01:25;26.37;;;16.90;;
7845;SDS011;3968;51.424;6.788;2022-12-13T00:03:51;27.50;;;17.57;;
7845;SDS011;3968;51.424;6.788;2022-12-13T00:06:17;25.37;;;16.80;;
7845;SDS011;3968;51.424;6.788;2022-12-13T00:08:43;23.87;;;16.27;;
7845;SDS011;3968;51.424;6.788;2022-12-13T00:11:10;25.07;;;16.97;;
7845;SDS011;3968;51.424;6.788;2022-12-13T00:13:37;26.03;;;17.17;;
7845;SDS011;3968;51.424;6.788;2022-12-13T00:16:04;25.10;;;16.27;;
7845;SDS011;3968;51.424;6.788;2022-12-13T00:18:31;33.43;;;17.10;;
7845;SDS011;3968;51.424;6.788;2022-12-13T00:20:57;25.53;;;16.60;;
7845;SDS011;3968;51.424;6.788;2022-12-13T00:23:23;25.77;;;16.67;;
7845;SDS011;3968;51.424;6.788;2022-12-13T00:25:49;24.57;;;16.33;;
7845;SDS011;3968;51.424;6.788;2022-12-13T00:28:15;27.30;;;16.97;;
7845;SDS011;3968;51.424;6.788;2022-12-13T00:30:41;26.00;;;17.17;;
7845;SDS011;3968;51.424;6.788;2022-12-13T00:33:07;26.43;;;16.57;;
7845;SDS011;3968;51.424;6.788;2022-12-13T00:35:38;25.80;;;16.37;;
7845;SDS011;3968;51.424;6.788;2022-12-13T00:38:04;25.40;;;15.87;;
7845;SDS011;3968;51.424;6.788;2022-12-13T00:40:30;24.57;;;15.63;;
7845;SDS011;3968;51.424;6.788;2022-12-13T00:42:56;25.50;;;16.90;;
7845;SDS011;3968;51.424;6.788;2022-12-13T00:45:22;23.30;;;15.90;;
7845;SDS011;3968;51.424;6.788;2022-12-13T00:47:48;25.90;;;15.87;;
7845;SDS011;3968;51.424;6.788;2022-12-13T00:50:15;26.83;;;16.43;;
7845;SDS011;3968;51.424;6.788;2022-12-13T00:52:40;25.90;;;15.80;;
7845;SDS011;3968;51.424;6.788;2022-12-13T00:55:07;26.50;;;16.67;;
7845;SDS011;3968;51.424;6.788;2022-12-13T00:57:33;26.07;;;16.30;;
7845;SDS011;3968;51.424;6.788;2022-12-13T00:59:59;24.37;;;15.57;;
7845;SDS011;3968;51.424;6.788;2022-12-13T01:02:25;26.77;;;16.07;;
7845;SDS011;3968;51.424;6.788;2022-12-13T01:04:51;23.23;;;15.57;;
7845;SDS011;3968;51.424;6.788;2022-12-13T01:07:17;25.93;;;16.97;;
7845;SDS011;3968;51.424;6.788;2022-12-13T01:09:43;26.73;;;16.03;;
7845;SDS011;3968;51.424;6.788;2022-12-13T01:12:09;25.17;;;15.53;;
7845;SDS011;3968;51.424;6.788;2022-12-13T01:14:36;24.83;;;15.93;;
7845;SDS011;3968;51.424;6.788;2022-12-13T01:17:02;26.30;;;15.73;;
7845;SDS011;3968;51.424;6.788;2022-12-13T01:19:28;23.43;;;15.50;;
7845;SDS011;3968;51.424;6.788;2022-12-13T01:21:55;27.80;;;16.03;;
7845;SDS011;3968;51.424;6.788;2022-12-13T01:24:22;27.70;;;17.13;;
7845;SDS011;3968;51.424;6.788;2022-12-13T01:26:50;26.30;;;16.70;;
7845;SDS011;3968;51.424;6.788;2022-12-13T01:29:16;27.80;;;16.20;;
7845;SDS011;3968;51.424;6.788;2022-12-13T01:31:42;28.60;;;16.97;;
7845;SDS011;3968;51.424;6.788;2022-12-13T01:34:12;25.77;;;15.70;;
7845;SDS011;3968;51.424;6.788;2022-12-13T01:36:38;23.47;;;15.57;;
7845;SDS011;3968;51.424;6.788;2022-12-13T01:39:05;25.10;;;16.07;;
7845;SDS011;3968;51.424;6.788;2022-12-13T01:41:31;26.83;;;16.97;;
7845;SDS011;3968;51.424;6.788;2022-12-13T01:43:58;24.23;;;16.57;;
7845;SDS011;3968;51.424;6.788;2022-12-13T01:46:27;24.97;;;15.77;;
7845;SDS011;3968;51.424;6.788;2022-12-13T01:49:04;26.33;;;16.77;;
7845;SDS011;3968;51.424;6.788;2022-12-13T01:51:41;26.40;;;15.87;;
7845;SDS011;3968;51.424;6.788;2022-12-13T01:54:09;25.80;;;16.23;;
7845;SDS011;3968;51.424;6.788;2022-12-13T01:56:37;25.07;;;15.67;;
7845;SDS011;3968;51.424;6.788;2022-12-13T01:59:04;25.60;;;15.17;;
7845;SDS011;3968;51.424;6.788;2022-12-13T02:01:31;25.83;;;16.13;;
7845;SDS011;3968;51.424;6.788;2022-12-13T02:03:57;22.43;;;14.83;;
7845;SDS011;3968;51.424;6.788;2022-12-13T02:06:33;25.80;;;15.87;;
7845;SDS011;3968;51.424;6.788;2022-12-13T02:09:02;25.40;;;15.80;;
7845;SDS011;3968;51.424;6.788;2022-12-13T02:11:29;25.73;;;15.30;;
7845;SDS011;3968;51.424;6.788;2022-12-13T02:13:56;25.23;;;16.13;;
7845;SDS011;3968;51.424;6.788;2022-12-13T02:22:07;23.63;;;14.47;;
7845;SDS011;3968;51.424;6.788;2022-12-13T02:26:55;22.67;;;14.47;;
7845;SDS011;3968;51.424;6.788;2022-12-13T02:31:54;23.33;;;15.00;;
7845;SDS011;3968;51.424;6.788;2022-12-13T02:34:25;26.70;;;16.07;;
7845;SDS011;3968;51.424;6.788;2022-12-13T02:36:56;25.10;;;15.50;;
7845;SDS011;3968;51.424;6.788;2022-12-13T02:39:25;22.30;;;15.00;;
7845;SDS011;3968;51.424;6.788;2022-12-13T02:42:06;27.07;;;15.40;;
7845;SDS011;3968;51.424;6.788;2022-12-13T02:44:40;23.20;;;14.57;;
7845;SDS011;3968;51.424;6.788;2022-12-13T02:47:12;25.80;;;15.83;;
7845;SDS011;3968;51.424;6.788;2022-12-13T02:49:40;27.90;;;15.60;;
7845;SDS011;3968;51.424;6.788;2022-12-13T02:52:07;24.80;;;15.20;;
7845;SDS011;3968;51.424;6.788;2022-12-13T02:54:33;24.83;;;15.50;;
7845;SDS011;3968;51.424;6.788;2022-12-13T02:56:59;26.07;;;15.63;;
7845;SDS011;3968;51.424;6.788;2022-12-13T02:59:29;26.00;;;16.17;;
7845;SDS011;3968;51.424;6.788;2022-12-13T03:01:59;25.93;;;15.10;;
7845;SDS011;3968;51.424;6.788;2022-12-13T03:12:40;26.03;;;14.90;;
7845;SDS011;3968;51.424;6.788;2022-12-13T03:15:43;24.70;;;15.67;;
7845;SDS011;3968;51.424;6.788;2022-12-13T03:18:13;27.23;;;15.47;;
7845;SDS011;3968;51.424;6.788;2022-12-13T03:20:50;21.27;;;14.50;;
7845;SDS011;3968;51.424;6.788;2022-12-13T03:23:17;25.27;;;15.87;;
7845;SDS011;3968;51.424;6.788;2022-12-13T03:25:43;24.90;;;15.23;;
7845;SDS011;3968;51.424;6.788;2022-12-13T03:28:10;26.37;;;16.23;;
7845;SDS011;3968;51.424;6.788;2022-12-13T03:30:36;25.83;;;15.77;;
7845;SDS011;3968;51.424;6.788;2022-12-13T03:33:02;25.73;;;15.47;;
7845;SDS011;3968;51.424;6.788;2022-12-13T03:35:28;25.87;;;16.27;;
7845;SDS011;3968;51.424;6.788;2022-12-13T03:37:55;23.43;;;14.23;;
7845;SDS011;3968;51.424;6.788;2022-12-13T03:40:21;25.23;;;15.00;;
7845;SDS011;3968;51.424;6.788;2022-12-13T03:42:47;24.30;;;14.70;;
7845;SDS011;3968;51.424;6.788;2022-12-13T03:45:13;27.93;;;16.77;;
7845;SDS011;3968;51.424;6.788;2022-12-13T03:47:39;23.97;;;14.67;;
7845;SDS011;3968;51.424;6.788;2022-12-13T03:50:05;26.80;;;16.07;;
7845;SDS011;3968;51.424;6.788;2022-12-13T03:52:31;25.10;;;15.10;;
7845;SDS011;3968;51.424;6.788;2022-12-13T03:54:57;26.10;;;15.60;;
7845;SDS011;3968;51.424;6.788;2022-12-13T03:57:23;25.07;;;14.83;;
7845;SDS011;3968;51.424;6.788;2022-12-13T03:59:49;24.67;;;15.13;;
7845;SDS011;3968;51.424;6.788;2022-12-13T04:02:15;25.00;;;15.60;;
7845;SDS011;3968;51.424;6.788;2022-12-13T04:04:41;28.00;;;15.87;;
7845;SDS011;3968;51.424;6.788;2022-12-13T04:07:07;26.77;;;15.10;;
7845;SDS011;3968;51.424;6.788;2022-12-13T04:09:33;25.17;;;15.53;;
7845;SDS011;3968;51.424;6.788;2022-12-13T04:11:59;25.87;;;15.23;;
7845;SDS011;3968;51.424;6.788;2022-12-13T04:14:43;27.80;;;15.93;;
7845;SDS011;3968;51.424;6.788;2022-12-13T04:17:09;24.97;;;15.50;;
7845;SDS011;3968;51.424;6.788;2022-12-13T04:19:35;23.23;;;15.00;;
7845;SDS011;3968;51.424;6.788;2022-12-13T04:22:01;24.63;;;14.57;;
7845;SDS011;3968;51.424;6.788;2022-12-13T04:24:27;25.83;;;15.60;;
7845;SDS011;3968;51.424;6.788;2022-12-13T04:26:53;26.30;;;15.47;;
7845;SDS011;3968;51.424;6.788;2022-12-13T04:29:19;23.40;;;15.00;;
7845;SDS011;3968;51.424;6.788;2022-12-13T04:31:45;26.60;;;16.43;;
7845;SDS011;3968;51.424;6.788;2022-12-13T04:34:11;25.03;;;15.87;;
7845;SDS011;3968;51.424;6.788;2022-12-13T04:36:37;24.30;;;15.07;;
7845;SDS011;3968;51.424;6.788;2022-12-13T04:39:03;24.00;;;14.60;;
7845;SDS011;3968;51.424;6.788;2022-12-13T04:41:34;25.77;;;15.40;;
7845;SDS011;3968;51.424;6.788;2022-12-13T04:44:00;25.67;;;15.20;;
7845;SDS011;3968;51.424;6.788;2022-12-13T04:46:26;27.43;;;16.37;;
7845;SDS011;3968;51.424;6.788;2022-12-13T04:48:52;24.90;;;14.93;;
7845;SDS011;3968;51.424;6.788;2022-12-13T04:51:18;27.70;;;15.63;;
7845;SDS011;3968;51.424;6.788;2022-12-13T04:53:44;22.37;;;14.30;;
7845;SDS011;3968;51.424;6.788;2022-12-13T04:56:10;23.97;;;14.27;;
7845;SDS011;3968;51.424;6.788;2022-12-13T04:58:36;24.57;;;15.40;;
7845;SDS011;3968;51.424;6.788;2022-12-13T05:01:06;28.50;;;16.07;;
7845;SDS011;3968;51.424;6.788;2022-12-13T05:03:32;25.63;;;15.87;;
7845;SDS011;3968;51.424;6.788;2022-12-13T05:05:58;27.53;;;15.70;;
7845;SDS011;3968;51.424;6.788;2022-12-13T05:08:24;26.00;;;15.10;;
7845;SDS011;3968;51.424;6.788;2022-12-13T05:10:50;25.83;;;15.93;;
7845;SDS011;3968;51.424;6.788;2022-12-13T05:13:16;22.60;;;15.33;;
7845;SDS011;3968;51.424;6.788;2022-12-13T05:15:42;25.53;;;15.23;;
7845;SDS011;3968;51.424;6.788;2022-12-13T05:18:08;25.83;;;16.67;;
7845;SDS011;3968;51.424;6.788;2022-12-13T05:20:34;25.07;;;15.40;;
7845;SDS011;3968;51.424;6.788;2022-12-13T05:23:00;23.60;;;15.80;;
7845;SDS011;3968;51.424;6.788;2022-12-13T05:25:27;25.83;;;15.70;;
7845;SDS011;3968;51.424;6.788;2022-12-13T05:27:53;25.37;;;14.60;;
7845;SDS011;3968;51.424;6.788;2022-12-13T05:30:19;27.90;;;16.77;;
7845;SDS011;3968;51.424;6.788;2022-12-13T05:32:45;26.97;;;16.03;;
7845;SDS011;3968;51.424;6.788;2022-12-13T05:35:12;26.03;;;16.00;;
7845;SDS011;3968;51.424;6.788;2022-12-13T05:37:38;25.27;;;15.40;;
7845;SDS011;3968;51.424;6.788;2022-12-13T05:40:04;23.53;;;14.77;;
7845;SDS011;3968;51.424;6.788;2022-12-13T05:42:30;25.87;;;15.80;;
7845;SDS011;3968;51.424;6.788;2022-12-13T05:44:56;23.87;;;14.90;;
7845;SDS011;3968;51.424;6.788;2022-12-13T05:47:22;27.67;;;16.13;;
7845;SDS011;3968;51.424;6.788;2022-12-13T05:49:48;25.87;;;15.23;;
7845;SDS011;3968;51.424;6.788;2022-12-13T05:52:19;23.97;;;15.13;;
7845;SDS011;3968;51.424;6.788;2022-12-13T05:54:45;24.73;;;15.63;;
7845;SDS011;3968;51.424;6.788;2022-12-13T05:57:11;24.33;;;14.77;;
7845;SDS011;3968;51.424;6.788;2022-12-13T05:59:37;24.77;;;15.30;;
7845;SDS011;3968;51.424;6.788;2022-12-13T06:02:03;20.50;;;14.57;;
7845;SDS011;3968;51.424;6.788;2022-12-13T06:04:29;22.73;;;13.50;;
7845;SDS011;3968;51.424;6.788;2022-12-13T06:06:55;22.13;;;14.33;;
7845;SDS011;3968;51.424;6.788;2022-12-13T06:09:21;28.90;;;16.03;;
7845;SDS011;3968;51.424;6.788;2022-12-13T06:11:48;25.50;;;14.93;;
7845;SDS011;3968;51.424;6.788;2022-12-13T06:14:14;28.80;;;15.40;;
7845;SDS011;3968;51.424;6.788;2022-12-13T06:16:40;24.87;;;15.17;;
7845;SDS011;3968;51.424;6.788;2022-12-13T06:19:06;26.07;;;15.30;;
7845;SDS011;3968;51.424;6.788;2022-12-13T06:21:33;25.90;;;14.67;;
7845;SDS011;3968;51.424;6.788;2022-12-13T06:23:59;24.20;;;15.30;;
7845;SDS011;3968;51.424;6.788;2022-12-13T06:26:25;23.50;;;14.20;;
7845;SDS011;3968;51.424;6.788;2022-12-13T06:28:51;25.27;;;15.30;;
7845;SDS011;3968;51.424;6.788;2022-12-13T06:31:17;32.53;;;16.20;;
7845;SDS011;3968;51.424;6.788;2022-12-13T06:33:43;31.20;;;14.97;;
7845;SDS011;3968;51.424;6.788;2022-12-13T06:36:09;23.67;;;14.37;;
7845;SDS011;3968;51.424;6.788;2022-12-13T06:38:35;25.83;;;15.43;;
7845;SDS011;3968;51.424;6.788;2022-12-13T06:41:05;28.30;;;15.93;;
7845;SDS011;3968;51.424;6.788;2022-12-13T06:43:31;23.13;;;13.87;;
7845;SDS011;3968;51.424;6.788;2022-12-13T06:45:57;25.67;;;15.40;;
7845;SDS011;3968;51.424;6.788;2022-12-13T06:48:23;23.23;;;14.20;;
7845;SDS011;3968;51.424;6.788;2022-12-13T06:50:49;26.47;;;15.60;;
7845;SDS011;3968;51.424;6.788;2022-12-13T06:53:15;22.83;;;14.57;;
7845;SDS011;3968;51.424;6.788;2022-12-13T06:55:41;26.07;;;14.57;;
7845;SDS011;3968;51.424;6.788;2022-12-13T06:58:07;25.80;;;14.47;;
7845;SDS011;3968;51.424;6.788;2022-12-13T07:00:33;25.10;;;16.00;;
7845;SDS011;3968;51.424;6.788;2022-12-13T07:02:59;23.63;;;14.10;;
7845;SDS011;3968;51.424;6.788;2022-12-13T07:05:25;26.03;;;14.70;;
7845;SDS011;3968;51.424;6.788;2022-12-13T07:07:51;32.80;;;15.70;;
7845;SDS011;3968;51.424;6.788;2022-12-13T07:10:18;25.40;;;14.23;;
7845;SDS011;3968;51.424;6.788;2022-12-13T07:12:45;23.10;;;15.00;;
7845;SDS011;3968;51.424;6.788;2022-12-13T07:15:11;22.70;;;13.70;;
7845;SDS011;3968;51.424;6.788;2022-12-13T07:17:37;25.67;;;15.93;;
7845;SDS011;3968;51.424;6.788;2022-12-13T07:20:04;29.47;;;15.93;;
7845;SDS011;3968;51.424;6.788;2022-12-13T07:22:35;25.00;;;14.07;;
7845;SDS011;3968;51.424;6.788;2022-12-13T07:25:01;24.10;;;14.40;;
7845;SDS011;3968;51.424;6.788;2022-12-13T07:27:28;27.07;;;15.13;;
7845;SDS011;3968;51.424;6.788;2022-12-13T07:29:54;29.70;;;15.80;;
7845;SDS011;3968;51.424;6.788;2022-12-13T07:32:21;25.63;;;15.17;;
7845;SDS011;3968;51.424;6.788;2022-12-13T07:34:47;25.70;;;14.67;;
7845;SDS011;3968;51.424;6.788;2022-12-13T07:37:13;25.50;;;15.40;;
7845;SDS011;3968;51.424;6.788;2022-12-13T07:39:39;26.87;;;15.40;;
7845;SDS011;3968;51.424;6.788;2022-12-13T07:42:05;29.33;;;15.17;;
7845;SDS011;3968;51.424;6.788;2022-12-13T07:44:31;26.03;;;15.50;;
7845;SDS011;3968;51.424;6.788;2022-12-13T07:46:57;24.20;;;14.87;;
7845;SDS011;3968;51.424;6.788;2022-12-13T07:49:23;26.37;;;15.30;;
7845;SDS011;3968;51.424;6.788;2022-12-13T07:51:49;24.93;;;15.53;;
7845;SDS011;3968;51.424;6.788;2022-12-13T07:54:15;27.47;;;15.77;;
7845;SDS011;3968;51.424;6.788;2022-12-13T07:56:41;28.77;;;16.80;;
7845;SDS011;3968;51.424;6.788;2022-12-13T07:59:08;28.70;;;16.80;;
7845;SDS011;3968;51.424;6.788;2022-12-13T08:01:34;25.10;;;15.63;;
7845;SDS011;3968;51.424;6.788;2022-12-13T08:04:01;26.10;;;15.60;;
7845;SDS011;3968;51.424;6.788;2022-12-13T08:06:27;30.57;;;16.80;;
7845;SDS011;3968;51.424;6.788;2022-12-13T08:08:56;29.23;;;16.60;;
7845;SDS011;3968;51.424;6.788;2022-12-13T08:11:22;28.23;;;16.83;;
7845;SDS011;3968;51.424;6.788;2022-12-13T08:13:48;25.50;;;16.50;;
7845;SDS011;3968;51.424;6.788;2022-12-13T08:16:14;27.63;;;15.77;;
7845;SDS011;3968;51.424;6.788;2022-12-13T08:18:42;26.23;;;16.53;;
7845;SDS011;3968;51.424;6.788;2022-12-13T08:21:08;27.83;;;16.70;;
7845;SDS011;3968;51.424;6.788;2022-12-13T08:23:35;27.30;;;16.70;;
7845;SDS011;3968;51.424;6.788;2022-12-13T08:26:02;29.40;;;17.20;;
7845;SDS011;3968;51.424;6.788;2022-12-13T08:28:28;29.67;;;17.17;;
7845;SDS011;3968;51.424;6.788;2022-12-13T08:30:55;28.03;;;16.37;;
7845;SDS011;3968;51.424;6.788;2022-12-13T08:33:21;29.03;;;16.90;;
7845;SDS011;3968;51.424;6.788;2022-12-13T08:35:47;32.27;;;17.83;;
7845;SDS011;3968;51.424;6.788;2022-12-13T08:38:13;28.50;;;18.03;;
7845;SDS011;3968;51.424;6.788;2022-12-13T08:40:39;33.67;;;18.53;;
7845;SDS011;3968;51.424;6.788;2022-12-13T08:43:05;28.83;;;16.73;;
7845;SDS011;3968;51.424;6.788;2022-12-13T08:45:31;28.80;;;16.97;;
7845;SDS011;3968;51.424;6.788;2022-12-13T08:47:58;28.33;;;16.73;;
7845;SDS011;3968;51.424;6.788;2022-12-13T08:50:24;28.80;;;18.00;;
7845;SDS011;3968;51.424;6.788;2022-12-13T08:52:50;29.77;;;17.93;;
7845;SDS011;3968;51.424;6.788;2022-12-13T08:55:17;31.40;;;18.90;;
7845;SDS011;3968;51.424;6.788;2022-12-13T08:57:43;31.27;;;18.33;;
7845;SDS011;3968;51.424;6.788;2022-12-13T09:00:13;33.73;;;17.80;;
7845;SDS011;3968;51.424;6.788;2022-12-13T09:02:40;29.50;;;17.67;;
7845;SDS011;3968;51.424;6.788;2022-12-13T09:05:07;29.47;;;18.23;;
7845;SDS011;3968;51.424;6.788;2022-12-13T09:07:33;30.63;;;18.53;;
7845;SDS011;3968;51.424;6.788;2022-12-13T09:10:00;32.70;;;20.10;;
7845;SDS011;3968;51.424;6.788;2022-12-13T09:12:26;28.97;;;17.30;;
7845;SDS011;3968;51.424;6.788;2022-12-13T09:14:52;31.87;;;18.43;;
7845;SDS011;3968;51.424;6.788;2022-12-13T09:17:18;31.37;;;18.30;;
7845;SDS011;3968;51.424;6.788;2022-12-13T09:19:44;28.20;;;16.80;;
7845;SDS011;3968;51.424;6.788;2022-12-13T09:22:10;27.70;;;17.63;;
7845;SDS011;3968;51.424;6.788;2022-12-13T09:24:37;31.57;;;19.00;;
7845;SDS011;3968;51.424;6.788;2022-12-13T09:27:03;25.33;;;17.00;;
7845;SDS011;3968;51.424;6.788;2022-12-13T09:29:30;31.33;;;17.83;;
7845;SDS011;3968;51.424;6.788;2022-12-13T09:31:56;31.80;;;18.27;;
7845;SDS011;3968;51.424;6.788;2022-12-13T09:34:22;28.67;;;18.13;;
7845;SDS011;3968;51.424;6.788;2022-12-13T09:36:48;28.00;;;17.90;;
7845;SDS011;3968;51.424;6.788;2022-12-13T09:39:14;30.80;;;17.73;;
7845;SDS011;3968;51.424;6.788;2022-12-13T09:41:41;29.23;;;17.20;;
7845;SDS011;3968;51.424;6.788;2022-12-13T09:44:19;28.87;;;17.47;;
7845;SDS011;3968;51.424;6.788;2022-12-13T09:46:46;29.50;;;17.37;;
7845;SDS011;3968;51.424;6.788;2022-12-13T09:49:19;26.53;;;16.40;;
7845;SDS011;3968;51.424;6.788;2022-12-13T09:51:48;30.60;;;17.77;;
7845;SDS011;3968;51.424;6.788;2022-12-13T09:54:20;27.70;;;17.70;;
7845;SDS011;3968;51.424;6.788;2022-12-13T09:56:47;28.70;;;16.57;;
7845;SDS011;3968;51.424;6.788;2022-12-13T09:59:14;29.30;;;17.30;;
7845;SDS011;3968;51.424;6.788;2022-12-13T10:01:41;27.77;;;16.40;;
7845;SDS011;3968;51.424;6.788;2022-12-13T10:04:08;29.67;;;18.63;;
7845;SDS011;3968;51.424;6.788;2022-12-13T10:06:37;25.53;;;16.80;;
7845;SDS011;3968;51.424;6.788;2022-12-13T10:09:03;35.33;;;20.40;;
7845;SDS011;3968;51.424;6.788;2022-12-13T10:11:33;37.20;;;22.97;;
7845;SDS011;3968;51.424;6.788;2022-12-13T10:14:03;30.00;;;17.40;;
7845;SDS011;3968;51.424;6.788;2022-12-13T10:16:39;27.63;;;17.17;;
7845;SDS011;3968;51.424;6.788;2022-12-13T10:19:17;28.80;;;17.23;;
7845;SDS011;3968;51.424;6.788;2022-12-13T10:21:46;27.97;;;16.77;;
7845;SDS011;3968;51.424;6.788;2022-12-13T10:24:14;28.90;;;17.47;;
7845;SDS011;3968;51.424;6.788;2022-12-13T10:26:40;27.23;;;16.60;;
7845;SDS011;3968;51.424;6.788;2022-12-13T10:29:06;28.23;;;17.07;;
7845;SDS011;3968;51.424;6.788;2022-12-13T10:31:39;25.93;;;16.47;;
7845;SDS011;3968;51.424;6.788;2022-12-13T10:34:12;26.07;;;16.83;;
7845;SDS011;3968;51.424;6.788;2022-12-13T10:36:40;30.30;;;17.23;;
7845;SDS011;3968;51.424;6.788;2022-12-13T10:39:12;29.10;;;16.70;;
7845;SDS011;3968;51.424;6.788;2022-12-13T10:41:39;28.97;;;17.50;;
7845;SDS011;3968;51.424;6.788;2022-12-13T10:44:06;27.47;;;16.93;;
7845;SDS011;3968;51.424;6.788;2022-12-13T10:46:32;28.17;;;17.17;;
7845;SDS011;3968;51.424;6.788;2022-12-13T10:48:59;26.40;;;15.63;;
7845;SDS011;3968;51.424;6.788;2022-12-13T10:51:25;29.40;;;17.20;;
7845;SDS011;3968;51.424;6.788;2022-12-13T10:53:52;26.23;;;16.40;;
7845;SDS011;3968;51.424;6.788;2022-12-13T10:56:19;24.83;;;15.87;;
7845;SDS011;3968;51.424;6.788;2022-12-13T10:58:46;23.37;;;16.63;;
7845;SDS011;3968;51.424;6.788;2022-12-13T11:01:22;25.97;;;16.60;;
7845;SDS011;3968;51.424;6.788;2022-12-13T11:03:59;24.33;;;14.93;;
7845;SDS011;3968;51.424;6.788;2022-12-13T11:06:26;22.73;;;14.93;;
7845;SDS011;3968;51.424;6.788;2022-12-13T11:08:53;24.57;;;15.13;;
7845;SDS011;3968;51.424;6.788;2022-12-13T11:11:28;21.80;;;14.57;;
7845;SDS011;3968;51.424;6.788;2022-12-13T11:13:57;25.80;;;15.93;;
7845;SDS011;3968;51.424;6.788;2022-12-13T11:16:34;22.47;;;14.77;;
7845;SDS011;3968;51.424;6.788;2022-12-13T11:19:02;22.53;;;15.30;;
7845;SDS011;3968;51.424;6.788;2022-12-13T11:21:30;21.53;;;14.33;;
7845;SDS011;3968;51.424;6.788;2022-12-13T11:23:57;30.63;;;16.93;;
7845;SDS011;3968;51.424;6.788;2022-12-13T11:26:24;25.07;;;14.37;;
7845;SDS011;3968;51.424;6.788;2022-12-13T11:28:56;22.07;;;13.67;;
7845;SDS011;3968;51.424;6.788;2022-12-13T11:39:13;20.13;;;12.20;;
7845;SDS011;3968;51.424;6.788;2022-12-13T11:47:18;20.33;;;12.57;;
7845;SDS011;3968;51.424;6.788;2022-12-13T11:49:48;18.43;;;11.83;;
7845;SDS011;3968;51.424;6.788;2022-12-13T11:54:55;17.47;;;11.80;;
7845;SDS011;3968;51.424;6.788;2022-12-13T11:57:29;16.67;;;11.43;;
7845;SDS011;3968;51.424;6.788;2022-12-13T11:59:57;19.00;;;12.27;;
7845;SDS011;3968;51.424;6.788;2022-12-13T12:04:55;16.17;;;11.40;;
7845;SDS011;3968;51.424;6.788;2022-12-13T12:07:29;15.93;;;11.00;;
7845;SDS011;3968;51.424;6.788;2022-12-13T12:09:58;21.23;;;12.20;;
7845;SDS011;3968;51.424;6.788;2022-12-13T12:12:29;18.73;;;12.07;;
7845;SDS011;3968;51.424;6.788;2022-12-13T12:15:01;16.73;;;10.97;;
7845;SDS011;3968;51.424;6.788;2022-12-13T12:17:31;18.23;;;11.17;;
7845;SDS011;3968;51.424;6.788;2022-12-13T12:19:57;16.13;;;11.30;;
7845;SDS011;3968;51.424;6.788;2022-12-13T12:25:17;16.93;;;11.87;;
7845;SDS011;3968;51.424;6.788;2022-12-13T12:30:40;16.83;;;10.50;;
7845;SDS011;3968;51.424;6.788;2022-12-13T12:33:22;15.70;;;10.37;;
7845;SDS011;3968;51.424;6.788;2022-12-13T12:35:51;15.83;;;9.87;;
7845;SDS011;3968;51.424;6.788;2022-12-13T12:45:57;15.70;;;10.03;;
7845;SDS011;3968;51.424;6.788;2022-12-13T12:48:32;18.97;;;11.80;;
7845;SDS011;3968;51.424;6.788;2022-12-13T12:51:06;17.87;;;10.60;;
7845;SDS011;3968;51.424;6.788;2022-12-13T12:53:46;20.00;;;10.10;;
7845;SDS011;3968;51.424;6.788;2022-12-13T12:56:36;16.35;;;11.80;;
7845;SDS011;3968;51.424;6.788;2022-12-13T13:02:27;13.77;;;9.60;;
7845;SDS011;3968;51.424;6.788;2022-12-13T13:04:55;16.00;;;10.47;;
7845;SDS011;3968;51.424;6.788;2022-12-13T13:07:26;16.63;;;10.53;;
7845;SDS011;3968;51.424;6.788;2022-12-13T13:09:55;14.83;;;9.90;;
7845;SDS011;3968;51.424;6.788;2022-12-13T13:12:25;13.67;;;9.67;;
7845;SDS011;3968;51.424;6.788;2022-12-13T13:14:51;15.97;;;10.13;;
7845;SDS011;3968;51.424;6.788;2022-12-13T13:19:47;19.67;;;10.23;;
7845;SDS011;3968;51.424;6.788;2022-12-13T13:22:25;16.47;;;10.10;;
7845;SDS011;3968;51.424;6.788;2022-12-13T13:27:43;16.13;;;10.00;;
7845;SDS011;3968;51.424;6.788;2022-12-13T13:30:42;14.30;;;9.70;;
7845;SDS011;3968;51.424;6.788;2022-12-13T13:33:01;14.47;;;9.63;;
7845;SDS011;3968;51.424;6.788;2022-12-13T13:37:57;15.57;;;9.93;;
7845;SDS011;3968;51.424;6.788;2022-12-13T13:46:15;16.17;;;10.83;;
7845;SDS011;3968;51.424;6.788;2022-12-13T13:55:53;15.27;;;9.63;;
7845;SDS011;3968;51.424;6.788;2022-12-13T14:01:07;15.70;;;9.77;;
7845;SDS011;3968;51.424;6.788;2022-12-13T14:03:45;14.60;;;9.53;;
7845;SDS011;3968;51.424;6.788;2022-12-13T14:08:59;12.00;;;8.90;;
7845;SDS011;3968;51.424;6.788;2022-12-13T14:19:03;13.20;;;9.07;;
7845;SDS011;3968;51.424;6.788;2022-12-13T14:21:41;14.63;;;10.27;;
7845;SDS011;3968;51.424;6.788;2022-12-13T14:29:10;16.03;;;9.57;;
7845;SDS011;3968;51.424;6.788;2022-12-13T14:31:40;15.83;;;10.00;;
7845;SDS011;3968;51.424;6.788;2022-12-13T14:34:07;14.63;;;9.60;;
7845;SDS011;3968;51.424;6.788;2022-12-13T14:36:40;15.03;;;8.90;;
7845;SDS011;3968;51.424;6.788;2022-12-13T14:39:13;16.40;;;9.43;;
7845;SDS011;3968;51.424;6.788;2022-12-13T14:41:49;14.87;;;9.67;;
7845;SDS011;3968;51.424;6.788;2022-12-13T14:44:20;16.37;;;9.73;;
7845;SDS011;3968;51.424;6.788;2022-12-13T14:46:50;16.63;;;10.00;;
7845;SDS011;3968;51.424;6.788;2022-12-13T14:49:17;14.50;;;9.27;;
7845;SDS011;3968;51.424;6.788;2022-12-13T14:51:43;15.67;;;9.50;;
7845;SDS011;3968;51.424;6.788;2022-12-13T14:54:16;15.83;;;9.47;;
7845;SDS011;3968;51.424;6.788;2022-12-13T14:56:58;18.80;;;10.03;;
7845;SDS011;3968;51.424;6.788;2022-12-13T14:59:25;14.53;;;9.43;;
7845;SDS011;3968;51.424;6.788;2022-12-13T15:01:55;14.73;;;9.33;;
7845;SDS011;3968;51.424;6.788;2022-12-13T15:06:58;14.80;;;8.87;;
7845;SDS011;3968;51.424;6.788;2022-12-13T15:09:25;15.67;;;9.13;;
7845;SDS011;3968;51.424;6.788;2022-12-13T15:11:52;16.83;;;8.90;;
7845;SDS011;3968;51.424;6.788;2022-12-13T15:14:18;13.27;;;9.37;;
7845;SDS011;3968;51.424;6.788;2022-12-13T15:16:48;16.50;;;9.77;;
7845;SDS011;3968;51.424;6.788;2022-12-13T15:19:15;22.90;;;13.50;;
7845;SDS011;3968;51.424;6.788;2022-12-13T15:24:24;22.73;;;14.77;;
7845;SDS011;3968;51.424;6.788;2022-12-13T15:26:51;25.10;;;15.63;;
7845;SDS011;3968;51.424;6.788;2022-12-13T15:29:17;24.77;;;14.93;;
7845;SDS011;3968;51.424;6.788;2022-12-13T15:31:45;22.33;;;14.87;;
7845;SDS011;3968;51.424;6.788;2022-12-13T15:37:03;25.13;;;15.37;;
7845;SDS011;3968;51.424;6.788;2022-12-13T15:39:30;29.03;;;16.37;;
7845;SDS011;3968;51.424;6.788;2022-12-13T15:42:00;21.93;;;14.37;;
7845;SDS011;3968;51.424;6.788;2022-12-13T15:44:32;23.70;;;15.27;;
7845;SDS011;3968;51.424;6.788;2022-12-13T15:47:04;23.00;;;14.37;;
7845;SDS011;3968;51.424;6.788;2022-12-13T15:54:40;28.17;;;15.50;;
7845;SDS011;3968;51.424;6.788;2022-12-13T15:59:38;23.57;;;14.00;;
7845;SDS011;3968;51.424;6.788;2022-12-13T16:02:16;28.47;;;14.60;;
7845;SDS011;3968;51.424;6.788;2022-12-13T16:04:44;25.30;;;13.37;;
7845;SDS011;3968;51.424;6.788;2022-12-13T16:07:23;22.53;;;13.63;;
7845;SDS011;3968;51.424;6.788;2022-12-13T16:09:50;26.47;;;14.67;;
7845;SDS011;3968;51.424;6.788;2022-12-13T16:12:25;19.83;;;13.17;;
7845;SDS011;3968;51.424;6.788;2022-12-13T16:15:05;23.83;;;14.27;;
7845;SDS011;3968;51.424;6.788;2022-12-13T16:17:31;24.30;;;14.07;;
7845;SDS011;3968;51.424;6.788;2022-12-13T16:19:57;23.40;;;14.13;;
7845;SDS011;3968;51.424;6.788;2022-12-13T16:22:23;23.17;;;14.73;;
7845;SDS011;3968;51.424;6.788;2022-12-13T16:24:50;22.80;;;14.33;;
7845;SDS011;3968;51.424;6.788;2022-12-13T16:27:16;21.63;;;13.63;;
7845;SDS011;3968;51.424;6.788;2022-12-13T16:29:43;20.90;;;13.87;;
7845;SDS011;3968;51.424;6.788;2022-12-13T16:32:09;20.97;;;14.00;;
7845;SDS011;3968;51.424;6.788;2022-12-13T16:34:35;26.93;;;15.23;;
7845;SDS011;3968;51.424;6.788;2022-12-13T16:37:01;26.97;;;14.60;;
7845;SDS011;3968;51.424;6.788;2022-12-13T16:39:27;26.03;;;14.50;;
7845;SDS011;3968;51.424;6.788;2022-12-13T16:41:53;24.97;;;14.47;;